الصفحة الرئيسية
METAR-TAF:

METAR-TAF

مطار :

مطار ميتشيل رومان الدولي

كورور, Babeldaob, بالاو

دائرة عرض: 07-22N, خط طول: 134-32E, ارتفاع: 54 متر

مراقبة الطقس الحالي

تاريخ ووقت الإصدار 1ساعة و 23 دقيقة قبل الساعة 14:50UTC
رياح هادئة
درجة الحرارة 26°درجة مئوية
الرطوبة 84%
ضغط 1010 hPa
الرؤية: 24.1 كم
غيوم مفككة على ارتفاع 1600 قدم
غيوم مفككة على ارتفاع 30000 قدم

METAR: PTRO 231450Z 00000KT 15SM BKN016 BKN300 26/23 A2982

زمن: 01:13 (16:13 UTC)

توقعات

تاريخ ووقت الإصدار 4ساعات و 53 دقيقة قبل الساعة 11:20UTC
التوقعات صالحة من23 الساعة 12 UTC إلى 24 الساعة 12 UTC
ريح 8 عقدة من الشرق
الرؤية: 10 كم
غيوم متفرقة على ارتفاع 1600 قدم
غيوم مفككة على ارتفاع 12000 قدم
غيوم مفككة على ارتفاع 30000 قدم

TAF: PTRO 231120Z 2312/2412 08008KT P6SM SCT016 BKN120 BKN300

أرصاد الطقس والتوقعات من أكثر من 4000 مطار (تقارير الطقس للمطار METAR والتنبؤ بالطقس بالمطارTAF).

المحطات المتاحة هي النقط الصفراء والحمراء على الخريطة.

حرك المؤشر فوق النقطة لمعرفة اسم المحطة.

ثم انقر لمعرفة أرصاد وتوقعات الطقس.

لتغيير الخارطة: اضغط على الأزرار الخضراء مع رمز الصليب الأسود للتكبير. على الزر الأخضر مع شرطة للتصغير، أو على الأسهم الخضراء للخرائط المجاورة.


METAR-TAF: